Time;durP1;ratioP1;P1;durP2;ratioP2;P2;SDS_P1;SDS_P2;PMS_P1;PMS_P2;Temp;Humidity;BMP_temperature;BMP_pressure;BME280_temperature;BME280_humidity;BME280_pressure;Samples;Min_cycle;Max_cycle;Signal;HPM_P1;HPM_P2
2021/01/06 00:01:04;;;;;;;11.43;6.40;;;4.00;89.10;;;;;;5109481;28;20400;-78
2021/01/06 00:03:30;;;;;;;11.40;6.43;;;4.00;89.70;;;;;;5090925;28;20230;-78
2021/01/06 00:05:59;;;;;;;9.67;5.77;;;4.00;89.30;;;;;;5090978;28;20685;-78
2021/01/06 00:08:26;;;;;;;11.57;7.33;;;4.00;89.40;;;;;;5090579;28;20181;-78
2021/01/06 00:10:54;;;;;;;9.83;6.53;;;4.00;89.10;;;;;;5107159;28;20552;-78
2021/01/06 00:13:20;;;;;;;8.37;5.77;;;4.00;89.10;;;;;;5116131;27;20633;-78
2021/01/06 00:15:46;;;;;;;11.40;6.87;;;4.00;88.90;;;;;;5103564;27;20276;-78
2021/01/06 00:18:13;;;;;;;7.77;5.43;;;4.00;88.70;;;;;;5113931;27;20215;-78
2021/01/06 00:20:40;;;;;;;7.00;6.17;;;4.10;88.70;;;;;;5090473;28;20181;-78
2021/01/06 00:23:06;;;;;;;10.73;5.80;;;4.10;88.90;;;;;;5109655;28;20259;-78
2021/01/06 00:25:35;;;;;;;8.33;6.07;;;4.10;88.90;;;;;;5109468;28;20165;-78
2021/01/06 00:28:03;;;;;;;16.30;7.97;;;4.10;89.40;;;;;;5108574;28;20625;-78
2021/01/06 00:30:31;;;;;;;8.43;6.70;;;4.00;89.10;;;;;;5117257;27;20583;-78
2021/01/06 00:32:57;;;;;;;8.30;6.37;;;3.90;89.20;;;;;;5115463;27;20207;-78
2021/01/06 00:35:24;;;;;;;12.03;5.43;;;4.00;89.30;;;;;;5103329;27;20181;-78
2021/01/06 00:37:52;;;;;;;14.23;6.33;;;4.00;89.20;;;;;;5111189;27;20173;-79
2021/01/06 00:40:19;;;;;;;5.77;4.97;;;4.00;89.10;;;;;;5115071;27;20585;-78
2021/01/06 00:42:45;;;;;;;7.63;5.37;;;4.10;88.90;;;;;;5091152;28;20181;-78
2021/01/06 00:45:15;;;;;;;10.73;6.17;;;3.90;89.60;;;;;;5108934;28;20263;-78
2021/01/06 00:47:42;;;;;;;11.63;5.93;;;3.90;89.60;;;;;;5090197;28;20236;-78
2021/01/06 00:50:08;;;;;;;10.90;5.37;;;3.90;89.30;;;;;;5090059;28;20186;-78
2021/01/06 00:52:34;;;;;;;7.47;5.40;;;4.00;89.40;;;;;;5092540;28;20202;-78
2021/01/06 00:55:00;;;;;;;5.47;4.57;;;4.00;89.50;;;;;;5092905;28;20188;-78
2021/01/06 00:57:26;;;;;;;8.50;5.07;;;3.90;89.40;;;;;;5108073;28;20181;-77
2021/01/06 00:59:51;;;;;;;9.17;4.73;;;3.90;89.60;;;;;;5089694;28;20234;-78
2021/01/06 01:02:17;;;;;;;7.17;4.67;;;3.90;89.60;;;;;;5091607;28;20185;-77
2021/01/06 01:04:45;;;;;;;5.37;4.87;;;3.90;89.30;;;;;;5090111;28;20566;-78
2021/01/06 01:07:12;;;;;;;7.23;4.37;;;4.00;89.30;;;;;;5106396;28;20208;-78
2021/01/06 01:09:38;;;;;;;9.30;5.07;;;4.00;88.90;;;;;;5106114;27;20677;-78
2021/01/06 01:12:11;;;;;;;9.17;3.90;;;4.00;88.90;;;;;;5114249;27;20690;-78
2021/01/06 01:14:37;;;;;;;5.87;4.57;;;4.10;88.80;;;;;;5086498;28;20615;-77
2021/01/06 01:17:03;;;;;;;5.27;4.30;;;4.10;89.40;;;;;;5086672;28;20176;-78
2021/01/06 01:19:29;;;;;;;7.97;4.43;;;4.10;89.20;;;;;;5067962;28;20178;-77
2021/01/06 01:21:54;;;;;;;8.33;4.90;;;4.10;89.00;;;;;;5079405;28;20725;-78
2021/01/06 01:24:20;;;;;;;18.20;5.30;;;4.10;88.90;;;;;;5090281;28;20178;-78
2021/01/06 01:26:50;;;;;;;6.33;4.23;;;4.10;88.70;;;;;;5089739;28;20561;-78
2021/01/06 01:29:16;;;;;;;7.70;4.30;;;4.10;88.50;;;;;;5111876;27;20185;-78
2021/01/06 01:31:42;;;;;;;5.67;4.73;;;4.10;88.90;;;;;;5113469;27;20230;-78
2021/01/06 01:34:08;;;;;;;7.30;4.80;;;4.10;88.80;;;;;;5117286;27;20205;-78
2021/01/06 01:36:33;;;;;;;7.10;4.63;;;4.10;88.70;;;;;;5110748;28;20641;-77
2021/01/06 01:38:59;;;;;;;8.77;5.53;;;4.10;88.70;;;;;;5127202;28;20181;-79
2021/01/06 01:41:27;;;;;;;7.07;4.33;;;4.10;88.70;;;;;;5098194;28;20182;-79
2021/01/06 01:43:53;;;;;;;5.83;3.97;;;4.10;88.50;;;;;;5088962;28;20185;-78
2021/01/06 01:46:35;;;;;;;8.83;4.67;;;4.20;88.50;;;;;;5110814;28;20205;-79
2021/01/06 01:49:03;;;;;;;4.60;3.97;;;4.10;88.40;;;;;;5078850;28;20190;-79
2021/01/06 01:51:34;;;;;;;5.10;4.20;;;4.20;88.60;;;;;;5088277;28;20221;-79
2021/01/06 01:54:06;;;;;;;9.87;5.50;;;4.20;88.50;;;;;;5107460;28;20177;-79
2021/01/06 01:56:45;;;;;;;7.73;5.37;;;4.20;88.60;;;;;;5106837;28;20157;-79
2021/01/06 01:59:17;;;;;;;8.53;5.13;;;4.10;88.90;;;;;;5106720;28;20173;-79
2021/01/06 02:01:46;;;;;;;14.50;6.03;;;4.10;88.80;;;;;;5088873;28;20201;-79
2021/01/06 02:04:28;;;;;;;14.43;7.00;;;4.10;88.90;;;;;;5095390;28;20696;-79
2021/01/06 02:07:01;;;;;;;11.13;6.50;;;4.10;89.00;;;;;;5111264;28;20910;-80
2021/01/06 02:09:36;;;;;;;15.77;6.33;;;4.20;89.00;;;;;;5091501;28;20193;-79
2021/01/06 02:12:11;;;;;;;14.53;6.50;;;4.20;88.80;;;;;;5107978;28;20197;-79
2021/01/06 02:14:45;;;;;;;13.33;7.93;;;4.20;89.00;;;;;;5105201;28;20559;-79
2021/01/06 02:17:13;;;;;;;14.90;6.87;;;4.20;89.00;;;;;;5106679;28;20170;-80
2021/01/06 02:19:41;;;;;;;22.47;7.40;;;4.20;89.00;;;;;;5090566;28;20196;-79
2021/01/06 02:22:10;;;;;;;15.47;9.03;;;4.20;88.80;;;;;;5109637;28;20174;-79
2021/01/06 02:24:36;;;;;;;18.73;8.83;;;4.20;88.90;;;;;;5091005;28;20685;-79
2021/01/06 02:27:04;;;;;;;17.77;9.87;;;4.20;89.00;;;;;;5091142;28;20234;-79
2021/01/06 02:29:31;;;;;;;20.10;8.90;;;4.20;89.20;;;;;;5109027;28;20173;-79
2021/01/06 02:31:57;;;;;;;16.60;9.63;;;4.20;89.50;;;;;;5109097;28;20784;-79
2021/01/06 02:34:23;;;;;;;11.30;7.60;;;4.10;89.20;;;;;;5103083;27;20185;-80
2021/01/06 02:36:49;;;;;;;15.37;8.03;;;4.10;89.40;;;;;;5115291;27;20177;-79
2021/01/06 02:39:15;;;;;;;19.57;8.13;;;4.10;89.40;;;;;;5095947;28;20223;-79
2021/01/06 02:41:42;;;;;;;18.77;8.57;;;4.10;89.30;;;;;;5089331;28;20185;-79
2021/01/06 02:44:09;;;;;;;10.40;7.30;;;4.10;89.50;;;;;;5100636;28;20188;-78
2021/01/06 02:46:36;;;;;;;20.03;8.97;;;4.10;89.40;;;;;;5128716;27;20693;-79
2021/01/06 02:49:05;;;;;;;13.97;7.43;;;4.10;89.40;;;;;;5114973;27;20588;-79
2021/01/06 02:51:50;;;;;;;16.53;9.20;;;4.10;89.40;;;;;;5093527;28;20207;-79
2021/01/06 02:54:21;;;;;;;7.93;5.57;;;4.20;88.90;;;;;;5093764;28;20654;-80
2021/01/06 02:56:51;;;;;;;12.30;6.17;;;4.20;88.80;;;;;;5092621;27;20685;-79
2021/01/06 02:59:21;;;;;;;12.23;7.33;;;4.20;88.70;;;;;;5128560;27;20181;-79
2021/01/06 03:01:48;;;;;;;16.20;7.17;;;4.20;88.90;;;;;;5132815;27;20179;-79
2021/01/06 03:04:17;;;;;;;15.47;7.37;;;4.20;88.80;;;;;;5133658;27;20179;-79
2021/01/06 03:06:55;;;;;;;11.70;7.00;;;4.20;88.80;;;;;;5114297;27;20244;-79
2021/01/06 03:09:29;;;;;;;8.77;6.50;;;4.20;88.80;;;;;;5132520;27;20217;-78
2021/01/06 03:11:57;;;;;;;8.13;6.43;;;4.20;88.90;;;;;;5127048;27;20208;-79
2021/01/06 03:14:26;;;;;;;13.83;5.90;;;4.20;89.00;;;;;;5093309;28;20203;-79
2021/01/06 03:16:53;;;;;;;10.70;6.13;;;4.20;88.80;;;;;;5103040;27;20185;-79
2021/01/06 03:19:21;;;;;;;7.03;5.43;;;4.10;88.80;;;;;;5114432;27;20177;-79
2021/01/06 03:21:48;;;;;;;7.50;6.03;;;4.20;89.20;;;;;;5133070;27;20205;-78
2021/01/06 03:24:17;;;;;;;9.50;6.30;;;4.10;89.30;;;;;;5133564;27;20176;-78
2021/01/06 03:26:45;;;;;;;7.47;5.70;;;4.10;89.40;;;;;;5113862;27;20267;-78
2021/01/06 03:29:11;;;;;;;10.13;7.57;;;4.00;89.50;;;;;;5114044;27;20185;-78
2021/01/06 03:31:44;;;;;;;12.83;6.50;;;4.00;89.60;;;;;;5128288;27;20194;-79
2021/01/06 03:34:23;;;;;;;9.60;6.20;;;4.00;89.50;;;;;;5117578;27;20181;-78
2021/01/06 03:37:01;;;;;;;14.47;8.80;;;4.00;89.40;;;;;;5127061;27;20195;-78
2021/01/06 03:39:37;;;;;;;7.00;5.87;;;3.90;89.60;;;;;;5112374;28;20172;-78
2021/01/06 03:42:03;;;;;;;12.97;6.40;;;3.80;90.00;;;;;;5093235;28;20201;-78
2021/01/06 03:44:30;;;;;;;6.30;5.27;;;3.80;90.00;;;;;;5093682;28;20209;-78
2021/01/06 03:47:26;;;;;;;8.13;5.23;;;3.90;89.90;;;;;;5112293;28;20604;-78
2021/01/06 03:49:54;;;;;;;10.37;5.43;;;3.90;89.90;;;;;;5093168;28;20184;-77
2021/01/06 03:53:08;;;;;;;6.50;5.23;;;3.90;90.20;;;;;;5120085;27;20206;-78
2021/01/06 03:55:52;;;;;;;9.77;5.60;;;3.90;89.80;;;;;;5020603;28;20331;-78
2021/01/06 03:59:08;;;;;;;13.87;7.07;;;3.90;89.80;;;;;;5030605;28;20207;-78
2021/01/06 04:01:50;;;;;;;11.30;7.07;;;4.00;90.00;;;;;;4968267;28;20194;-78
2021/01/06 04:04:23;;;;;;;8.60;5.80;;;3.90;90.00;;;;;;4968253;28;20190;-79
2021/01/06 04:09:51;;;;;;;10.50;6.03;;;3.90;90.00;;;;;;4949773;29;20249;-78
2021/01/06 04:12:18;;;;;;;13.60;5.50;;;3.90;89.90;;;;;;4950487;28;20215;-79
2021/01/06 04:14:44;;;;;;;6.97;5.43;;;3.90;90.00;;;;;;4966301;28;20201;-78
2021/01/06 04:17:29;;;;;;;9.87;6.33;;;4.00;89.90;;;;;;4960974;28;20211;-78
2021/01/06 04:20:00;;;;;;;8.20;5.37;;;4.00;89.70;;;;;;4957306;28;20182;-80
2021/01/06 04:22:47;;;;;;;7.77;5.00;;;4.00;89.60;;;;;;4968103;28;20186;-79
2021/01/06 04:25:24;;;;;;;9.20;5.43;;;4.00;89.40;;;;;;4968381;28;20580;-79
2021/01/06 04:27:56;;;;;;;10.40;5.83;;;3.90;89.50;;;;;;4968293;28;20174;-78
2021/01/06 04:30:50;;;;;;;9.67;5.33;;;4.00;90.00;;;;;;4983115;28;20189;-78
2021/01/06 04:33:18;;;;;;;10.37;6.10;;;3.90;89.60;;;;;;4998017;28;20752;-78
2021/01/06 04:35:44;;;;;;;8.23;5.43;;;3.90;89.80;;;;;;4999051;28;20973;-78
2021/01/06 04:38:18;;;;;;;6.77;5.63;;;3.90;89.90;;;;;;5040717;28;20183;-79
2021/01/06 04:40:46;;;;;;;5.80;4.97;;;4.00;89.70;;;;;;5029849;28;21104;-78
2021/01/06 04:44:06;;;;;;;8.03;5.20;;;4.00;89.70;;;;;;5046984;28;20719;-78
2021/01/06 04:46:52;;;;;;;10.17;6.00;;;4.00;89.60;;;;;;5006767;28;20181;-77
2021/01/06 04:49:32;;;;;;;9.27;6.03;;;4.00;89.90;;;;;;5007752;28;20610;-79
2021/01/06 04:51:58;;;;;;;8.60;6.17;;;4.00;90.00;;;;;;4992797;28;20221;-78
2021/01/06 04:54:47;;;;;;;13.33;6.40;;;3.90;89.80;;;;;;4985888;28;20185;-78
2021/01/06 04:57:37;;;;;;;6.80;5.63;;;3.90;90.40;;;;;;5005977;28;20185;-78
2021/01/06 05:00:05;;;;;;;10.93;6.07;;;3.90;90.10;;;;;;5006681;28;20607;-79
2021/01/06 05:03:02;;;;;;;6.53;4.63;;;3.90;90.00;;;;;;5012108;28;20707;-79
2021/01/06 05:05:28;;;;;;;8.47;5.53;;;3.90;90.30;;;;;;5006623;28;20231;-79
2021/01/06 05:08:24;;;;;;;7.60;5.90;;;4.00;90.10;;;;;;4989926;28;20189;-79
2021/01/06 05:11:06;;;;;;;10.60;6.13;;;4.00;89.90;;;;;;5036246;28;20745;-79
2021/01/06 05:13:57;;;;;;;8.00;5.90;;;4.00;90.00;;;;;;5046267;28;20180;-79
2021/01/06 05:16:44;;;;;;;10.10;6.60;;;4.00;89.90;;;;;;4986827;28;20186;-79
2021/01/06 05:19:22;;;;;;;10.30;5.80;;;4.00;89.80;;;;;;4970957;28;20272;-78
2021/01/06 05:21:49;;;;;;;10.73;5.93;;;4.00;90.00;;;;;;4989819;28;20726;-78
2021/01/06 05:24:36;;;;;;;10.33;6.30;;;4.00;89.90;;;;;;5006076;28;20232;-78
2021/01/06 05:27:29;;;;;;;8.90;5.23;;;4.00;89.80;;;;;;5006680;28;20214;-78
2021/01/06 05:30:00;;;;;;;10.53;5.63;;;4.00;90.10;;;;;;4970609;28;20746;-78
2021/01/06 05:32:28;;;;;;;14.10;7.37;;;4.00;90.10;;;;;;4962870;28;20929;-79
2021/01/06 05:35:12;;;;;;;12.47;6.43;;;4.00;90.10;;;;;;4947874;29;20187;-78
2021/01/06 05:37:38;;;;;;;7.57;5.73;;;4.10;90.00;;;;;;4949908;28;20742;-78
2021/01/06 05:40:10;;;;;;;17.00;7.40;;;4.10;90.20;;;;;;4948298;28;20197;-77
2021/01/06 05:42:48;;;;;;;12.93;7.60;;;4.20;90.20;;;;;;4945030;28;20233;-77
2021/01/06 05:45:15;;;;;;;10.90;6.73;;;4.20;90.30;;;;;;4947316;28;20679;-77
2021/01/06 05:47:46;;;;;;;13.77;7.83;;;4.20;90.50;;;;;;4952712;28;20297;-76
2021/01/06 05:53:35;;;;;;;10.80;6.70;;;4.00;90.90;;;;;;4975070;28;20687;-76
2021/01/06 05:56:34;;;;;;;14.77;7.13;;;4.00;90.90;;;;;;5013290;28;20172;-76
2021/01/06 05:59:12;;;;;;;12.17;7.00;;;4.10;91.00;;;;;;5025899;28;20936;-81
2021/01/06 06:01:45;;;;;;;9.93;6.50;;;4.10;90.90;;;;;;5023266;28;20586;-82
2021/01/06 06:04:42;;;;;;;11.33;6.37;;;4.20;90.60;;;;;;5002173;28;20684;-82
2021/01/06 06:07:33;;;;;;;11.23;6.97;;;4.20;90.30;;;;;;4988437;28;20207;-81
2021/01/06 06:10:05;;;;;;;14.93;7.77;;;4.20;90.40;;;;;;5021285;28;20196;-81
2021/01/06 06:12:45;;;;;;;9.63;6.53;;;4.20;90.30;;;;;;5032122;28;20231;-82
2021/01/06 06:15:31;;;;;;;12.57;7.53;;;4.20;90.30;;;;;;5012278;28;20267;-82
2021/01/06 06:18:34;;;;;;;9.37;6.70;;;4.10;90.50;;;;;;5012247;28;20192;-82
2021/01/06 06:21:14;;;;;;;12.13;7.20;;;4.10;90.70;;;;;;5029960;28;20191;-75
2021/01/06 06:24:01;;;;;;;14.27;7.23;;;4.10;90.70;;;;;;5038612;28;20180;-75
2021/01/06 06:26:52;;;;;;;12.77;7.80;;;4.20;90.50;;;;;;5024974;28;20188;-75
2021/01/06 06:29:19;;;;;;;9.53;7.07;;;4.20;90.20;;;;;;5026620;28;20661;-79
2021/01/06 06:31:56;;;;;;;10.77;7.17;;;4.20;90.40;;;;;;5015965;28;20234;-80
2021/01/06 06:34:31;;;;;;;7.17;6.30;;;4.20;90.30;;;;;;5031816;28;20171;-80
2021/01/06 06:37:08;;;;;;;11.43;6.93;;;4.10;90.70;;;;;;5048751;28;21145;-81
2021/01/06 06:39:45;;;;;;;10.77;6.67;;;4.10;90.40;;;;;;5029863;28;20176;-78
2021/01/06 06:42:24;;;;;;;10.03;6.80;;;4.20;90.40;;;;;;5027423;28;20642;-81
2021/01/06 06:44:59;;;;;;;12.20;7.83;;;4.20;90.30;;;;;;5096846;27;20198;-77
2021/01/06 06:48:03;;;;;;;10.97;7.40;;;4.20;90.30;;;;;;5110933;28;20208;-78
2021/01/06 06:51:10;;;;;;;9.97;6.47;;;4.20;90.30;;;;;;5092711;28;20181;-81
2021/01/06 06:54:09;;;;;;;8.40;7.07;;;4.20;90.30;;;;;;5093051;28;20543;-79
2021/01/06 06:56:38;;;;;;;7.70;6.23;;;4.20;90.40;;;;;;5027545;28;20195;-79
2021/01/06 06:59:31;;;;;;;10.80;6.63;;;4.20;90.40;;;;;;5028934;28;20317;-89
2021/01/06 07:02:02;;;;;;;11.17;6.47;;;4.10;90.40;;;;;;5034475;28;20624;-77
2021/01/06 07:04:45;;;;;;;10.47;6.90;;;4.20;90.40;;;;;;5041771;28;20295;-77
2021/01/06 07:07:34;;;;;;;13.33;7.13;;;4.20;90.50;;;;;;5052555;28;20669;-78
2021/01/06 07:10:04;;;;;;;9.37;6.87;;;4.20;90.50;;;;;;5032288;28;20195;-79
2021/01/06 07:12:38;;;;;;;11.83;7.80;;;4.20;90.50;;;;;;5027664;28;20239;-79
2021/01/06 07:15:05;;;;;;;8.53;6.43;;;4.20;90.40;;;;;;5035785;28;20183;-79
2021/01/06 07:17:39;;;;;;;12.30;6.40;;;4.20;90.30;;;;;;5067076;28;20198;-79
2021/01/06 07:20:09;;;;;;;15.30;8.23;;;4.30;90.10;;;;;;5067203;28;20194;-79
2021/01/06 07:22:45;;;;;;;12.67;7.13;;;4.40;90.00;;;;;;5048989;28;20190;-79
2021/01/06 07:25:17;;;;;;;14.57;7.07;;;4.50;89.90;;;;;;5065876;28;20191;-79
2021/01/06 07:28:14;;;;;;;8.90;6.80;;;4.60;89.80;;;;;;5049768;28;20286;-79
2021/01/06 07:30:47;;;;;;;14.97;7.77;;;4.70;89.40;;;;;;5049997;28;21055;-79
2021/01/06 07:33:40;;;;;;;15.13;8.27;;;4.80;89.30;;;;;;5062885;28;20205;-78
2021/01/06 07:36:14;;;;;;;13.70;8.77;;;4.90;89.10;;;;;;5079022;27;20192;-79
2021/01/06 07:38:41;;;;;;;18.63;10.17;;;5.00;89.10;;;;;;5110500;27;20173;-80
2021/01/06 07:41:07;;;;;;;22.60;11.13;;;5.00;88.30;;;;;;5109777;27;20200;-80
2021/01/06 07:43:36;;;;;;;14.73;9.17;;;5.00;88.50;;;;;;5109973;27;20195;-79
2021/01/06 07:46:02;;;;;;;13.93;9.00;;;5.10;88.60;;;;;;5110264;27;20192;-81
2021/01/06 07:48:28;;;;;;;15.67;9.53;;;5.10;88.70;;;;;;5128826;27;20911;-79
2021/01/06 07:51:02;;;;;;;20.17;10.47;;;5.20;88.60;;;;;;5111695;27;20185;-80
2021/01/06 07:53:38;;;;;;;22.93;10.00;;;5.30;88.20;;;;;;5089428;28;20259;-80
2021/01/06 07:56:14;;;;;;;15.80;9.57;;;5.30;87.60;;;;;;5107666;28;20161;-79
2021/01/06 07:58:43;;;;;;;21.13;11.47;;;5.40;87.70;;;;;;5089556;28;20174;-79
2021/01/06 08:01:49;;;;;;;20.27;12.77;;;5.50;87.70;;;;;;5080855;28;21017;-80
2021/01/06 08:04:30;;;;;;;19.57;10.13;;;5.50;87.20;;;;;;5118966;27;20629;-79
2021/01/06 08:06:57;;;;;;;18.77;9.87;;;5.60;87.40;;;;;;5109685;27;20177;-80
2021/01/06 08:09:35;;;;;;;21.20;11.83;;;5.60;87.40;;;;;;5107741;27;20246;-80
2021/01/06 08:12:14;;;;;;;28.17;12.57;;;5.70;87.00;;;;;;5090767;28;20193;-80
2021/01/06 08:14:40;;;;;;;17.97;10.57;;;5.70;86.80;;;;;;5119468;27;20203;-80
2021/01/06 08:17:33;;;;;;;23.00;11.43;;;5.90;87.20;;;;;;5111197;27;20566;-80
2021/01/06 08:20:07;;;;;;;15.87;10.30;;;6.30;86.60;;;;;;5104232;27;20183;-80
2021/01/06 08:22:48;;;;;;;25.70;12.20;;;6.90;86.90;;;;;;5110553;27;20982;-79
2021/01/06 08:25:40;;;;;;;23.87;12.57;;;7.70;84.20;;;;;;5090700;28;20193;-79
2021/01/06 08:28:22;;;;;;;23.20;12.70;;;8.30;82.40;;;;;;5102097;27;20189;-80
2021/01/06 08:30:47;;;;;;;25.70;12.50;;;8.90;81.40;;;;;;5088793;28;20173;-79
2021/01/06 08:33:15;;;;;;;21.13;13.07;;;9.40;80.60;;;;;;5120952;27;20216;-80
2021/01/06 08:35:43;;;;;;;23.17;14.07;;;10.00;76.80;;;;;;5109621;27;20559;-80
2021/01/06 08:38:31;;;;;;;20.97;13.40;;;10.20;75.80;;;;;;5110904;27;20173;-79
2021/01/06 08:41:14;;;;;;;29.53;14.73;;;10.50;75.70;;;;;;5110218;27;20606;-79
2021/01/06 08:43:39;;;;;;;24.50;13.50;;;10.90;75.20;;;;;;5110388;27;20828;-80
2021/01/06 08:46:06;;;;;;;27.23;15.53;;;10.80;72.90;;;;;;5129836;27;20279;-79
2021/01/06 08:48:35;;;;;;;30.85;15.13;;;10.50;73.30;;;;;;5108754;27;20177;-79
2021/01/06 08:51:15;;;;;;;24.70;15.10;;;10.50;75.30;;;;;;5130036;27;20221;-83
2021/01/06 08:53:44;;;;;;;20.67;14.18;;;10.60;74.60;;;;;;5131589;27;20176;-80
2021/01/06 08:56:30;;;;;;;25.27;15.07;;;10.90;75.50;;;;;;5110333;27;20169;-80
2021/01/06 08:58:57;;;;;;;21.02;13.90;;;11.10;72.60;;;;;;5109718;27;20169;-81
2021/01/06 09:01:49;;;;;;;32.78;12.98;;;11.40;73.00;;;;;;5111226;27;20942;-81
2021/01/06 09:04:38;;;;;;;20.35;11.98;;;11.80;72.80;;;;;;5109575;28;20615;-81
2021/01/06 09:07:25;;;;;;;12.68;9.65;;;12.10;71.20;;;;;;5090045;28;20649;-81
2021/01/06 09:10:16;;;;;;;11.02;8.25;;;12.30;70.70;;;;;;5108636;28;20279;-81
2021/01/06 09:12:56;;;;;;;18.23;9.10;;;12.50;69.90;;;;;;5108284;28;20215;-81
2021/01/06 09:15:40;;;;;;;12.23;9.07;;;12.60;69.90;;;;;;5088617;28;20162;-80
2021/01/06 09:18:26;;;;;;;15.13;9.57;;;12.50;69.70;;;;;;5070139;28;20195;-79
2021/01/06 09:21:03;;;;;;;14.20;9.50;;;12.30;69.30;;;;;;5090430;28;20162;-85
2021/01/06 09:23:30;;;;;;;15.48;8.20;;;12.40;70.00;;;;;;5087025;28;20197;-83
2021/01/06 09:25:58;;;;;;;13.88;7.93;;;12.70;69.30;;;;;;5069740;28;20591;-80
2021/01/06 09:28:25;;;;;;;11.57;7.38;;;12.90;68.90;;;;;;5089138;28;20181;-80
2021/01/06 09:30:51;;;;;;;10.02;6.97;;;13.10;68.30;;;;;;5089451;28;20658;-85
2021/01/06 09:33:28;;;;;;;8.18;6.13;;;13.60;68.40;;;;;;5090659;28;20174;-77
2021/01/06 09:35:54;;;;;;;7.00;6.15;;;14.40;66.80;;;;;;5088547;28;20155;-83
2021/01/06 09:38:19;;;;;;;8.73;6.63;;;15.20;65.20;;;;;;5088040;28;20547;-82
2021/01/06 09:40:45;;;;;;;8.25;6.22;;;16.10;63.40;;;;;;5099925;28;20218;-81
2021/01/06 09:43:40;;;;;;;8.23;5.95;;;17.00;62.10;;;;;;5108090;28;20284;-81
2021/01/06 09:46:35;;;;;;;10.38;5.85;;;17.90;61.10;;;;;;5089558;28;20185;-81
2021/01/06 09:49:09;;;;;;;8.15;6.55;;;18.60;60.20;;;;;;5025361;28;20649;-80
2021/01/06 09:51:40;;;;;;;8.02;6.32;;;18.80;58.70;;;;;;5008680;28;20214;-84
2021/01/06 09:54:06;;;;;;;8.18;5.90;;;18.90;57.90;;;;;;5032670;28;20187;-83
2021/01/06 09:56:34;;;;;;;6.90;5.65;;;19.30;59.00;;;;;;5058496;28;20230;-84
2021/01/06 09:59:04;;;;;;;6.53;5.28;;;19.80;58.30;;;;;;5044410;28;20183;-77
2021/01/06 10:01:48;;;;;;;5.78;5.13;;;20.10;56.30;;;;;;5040224;28;20187;-77
2021/01/06 10:04:20;;;;;;;8.60;4.93;;;20.20;56.30;;;;;;5036522;28;20713;-77
2021/01/06 10:07:04;;;;;;;6.63;4.90;;;20.50;56.50;;;;;;5041036;28;20215;-77
2021/01/06 10:09:42;;;;;;;6.15;5.50;;;21.00;55.20;;;;;;5044395;28;21042;-78
2021/01/06 10:12:38;;;;;;;6.13;4.95;;;21.40;55.70;;;;;;5027939;28;20211;-78
2021/01/06 10:15:35;;;;;;;9.00;6.43;;;21.90;53.40;;;;;;5044335;28;20263;-79
2021/01/06 10:18:13;;;;;;;5.55;5.05;;;22.20;53.50;;;;;;5052471;28;20565;-82
2021/01/06 10:20:57;;;;;;;8.45;5.45;;;22.00;51.80;;;;;;5017860;28;20184;-77
2021/01/06 10:23:31;;;;;;;8.40;5.68;;;21.30;52.70;;;;;;5054993;28;20237;-76
2021/01/06 10:26:28;;;;;;;7.85;5.97;;;21.20;53.90;;;;;;5070106;28;20355;-76
2021/01/06 10:28:55;;;;;;;4.95;4.55;;;21.40;52.90;;;;;;5107501;28;20178;-82
2021/01/06 10:31:26;;;;;;;6.20;5.35;;;21.00;53.40;;;;;;5088048;28;20201;-78
2021/01/06 10:34:06;;;;;;;6.75;5.82;;;21.20;54.70;;;;;;5096876;28;20181;-77
2021/01/06 10:37:02;;;;;;;6.18;5.65;;;21.40;53.70;;;;;;5121408;28;20181;-77
2021/01/06 10:39:39;;;;;;;8.30;6.80;;;21.70;54.20;;;;;;5078104;28;20181;-77
2021/01/06 10:42:17;;;;;;;11.10;6.97;;;22.00;54.10;;;;;;5126635;28;20271;-78
2021/01/06 10:45:07;;;;;;;6.65;6.03;;;22.50;53.80;;;;;;5124451;28;20196;-77
2021/01/06 10:47:33;;;;;;;12.38;6.22;;;22.90;52.00;;;;;;5098127;28;20264;-80
2021/01/06 10:50:23;;;;;;;6.90;6.20;;;23.20;52.50;;;;;;5115414;28;20265;-79
2021/01/06 10:53:04;;;;;;;6.80;6.10;;;23.40;50.60;;;;;;5089466;28;20200;-80
2021/01/06 10:56:02;;;;;;;8.00;6.18;;;23.80;51.80;;;;;;5111548;27;20188;-80
2021/01/06 10:58:39;;;;;;;6.80;5.72;;;24.00;50.20;;;;;;5080029;28;20184;-77
2021/01/06 11:01:15;;;;;;;6.25;5.65;;;24.20;49.90;;;;;;5105531;28;20231;-77
2021/01/06 11:04:07;;;;;;;4.57;4.15;;;24.40;50.80;;;;;;5104782;28;20563;-76
2021/01/06 11:06:45;;;;;;;4.68;4.25;;;24.50;49.70;;;;;;5101188;28;20186;-77
2021/01/06 11:09:41;;;;;;;2.83;2.40;;;24.60;51.40;;;;;;5103759;28;20185;-77
2021/01/06 11:12:51;;;;;;;2.97;2.78;;;24.70;50.20;;;;;;5088377;28;20205;-77
2021/01/06 11:16:09;;;;;;;2.05;2.05;;;24.50;49.10;;;;;;5087793;28;20304;-77
2021/01/06 11:18:41;;;;;;;2.55;2.38;;;24.40;49.90;;;;;;5035389;28;20271;-81
2021/01/06 11:21:22;;;;;;;2.53;2.38;;;24.30;51.00;;;;;;5028672;28;20219;-81
2021/01/06 11:24:00;;;;;;;2.72;2.53;;;24.30;51.30;;;;;;5048349;28;20191;-82
2021/01/06 11:26:31;;;;;;;2.30;2.20;;;23.90;50.70;;;;;;5031266;28;20708;-81
2021/01/06 11:29:21;;;;;;;2.53;2.42;;;23.50;50.40;;;;;;5031108;28;20175;-82
2021/01/06 11:31:50;;;;;;;3.50;2.20;;;22.90;53.10;;;;;;5014090;28;20196;-80
2021/01/06 11:34:15;;;;;;;4.15;2.35;;;22.40;54.00;;;;;;5031114;28;20194;-83
2021/01/06 11:36:56;;;;;;;3.05;2.92;;;22.20;54.50;;;;;;5031175;28;20183;-82
2021/01/06 11:39:27;;;;;;;2.90;2.80;;;22.20;53.50;;;;;;5030804;28;20244;-81
2021/01/06 11:42:01;;;;;;;3.53;2.22;;;22.30;54.00;;;;;;5022466;28;20215;-82
2021/01/06 11:45:07;;;;;;;2.35;1.90;;;22.60;53.80;;;;;;5031329;28;20277;-82
2021/01/06 11:47:56;;;;;;;1.60;1.50;;;23.00;53.70;;;;;;5047828;28;20188;-81
2021/01/06 11:50:40;;;;;;;1.58;1.58;;;23.60;53.10;;;;;;5071790;28;20188;-82
2021/01/06 11:53:24;;;;;;;1.55;1.55;;;23.80;48.10;;;;;;5090721;28;20246;-81
2021/01/06 11:56:10;;;;;;;1.40;1.30;;;23.90;51.80;;;;;;5090378;28;20674;-82
2021/01/06 11:59:04;;;;;;;1.58;1.48;;;24.10;47.60;;;;;;5095564;27;20172;-82
2021/01/06 12:01:30;;;;;;;2.78;2.10;;;24.00;49.20;;;;;;5108178;28;20239;-82
2021/01/06 12:04:23;;;;;;;3.33;1.63;;;24.10;51.10;;;;;;5110833;28;20602;-81
2021/01/06 12:07:18;;;;;;;1.67;1.58;;;24.40;48.50;;;;;;5094712;27;20817;-82
2021/01/06 12:10:05;;;;;;;3.22;1.45;;;24.70;49.40;;;;;;5110909;27;20199;-82
2021/01/06 12:12:50;;;;;;;0.85;0.85;;;25.00;48.40;;;;;;5091394;28;20201;-80
2021/01/06 12:15:49;;;;;;;1.17;1.17;;;25.30;49.30;;;;;;5091109;28;20207;-80
2021/01/06 12:18:25;;;;;;;1.92;1.20;;;25.50;48.10;;;;;;5091179;28;20212;-81
2021/01/06 12:20:52;;;;;;;1.90;1.88;;;25.70;47.20;;;;;;5091357;28;20158;-81
2021/01/06 12:23:36;;;;;;;1.55;1.50;;;25.80;48.70;;;;;;5091242;28;20188;-80
2021/01/06 12:26:02;;;;;;;1.27;1.27;;;26.00;49.80;;;;;;5091120;28;20213;-81
2021/01/06 12:28:44;;;;;;;0.90;0.90;;;26.20;47.20;;;;;;5092152;28;20177;-82
2021/01/06 12:31:38;;;;;;;2.28;1.55;;;26.50;48.30;;;;;;5109659;28;20180;-82
2021/01/06 12:34:16;;;;;;;3.15;1.48;;;26.70;48.40;;;;;;5110379;28;20226;-84
2021/01/06 12:37:04;;;;;;;1.60;1.30;;;26.90;48.10;;;;;;5110056;28;20558;-83
2021/01/06 12:39:32;;;;;;;2.00;1.67;;;26.90;46.50;;;;;;5090773;28;20180;-82
2021/01/06 12:42:21;;;;;;;2.20;1.95;;;26.70;47.50;;;;;;5108991;27;20181;-79
2021/01/06 12:45:09;;;;;;;1.10;1.10;;;26.40;48.80;;;;;;5109184;28;20609;-82
2021/01/06 12:48:01;;;;;;;3.95;1.30;;;26.20;47.20;;;;;;5090556;28;20570;-81
2021/01/06 12:50:47;;;;;;;1.58;1.48;;;26.10;47.20;;;;;;5108818;28;20180;-81
2021/01/06 12:53:31;;;;;;;1.60;1.50;;;25.70;48.30;;;;;;5107836;28;20201;-79
2021/01/06 12:56:14;;;;;;;1.52;1.52;;;25.10;49.30;;;;;;5091009;28;20174;-83
2021/01/06 12:58:46;;;;;;;2.17;1.83;;;24.50;49.30;;;;;;5106156;28;20162;-78
2021/01/06 13:01:28;;;;;;;1.33;1.33;;;23.80;51.20;;;;;;5106585;28;20154;-78
2021/01/06 13:03:57;;;;;;;1.65;1.55;;;23.20;50.20;;;;;;5088325;28;20193;-78
2021/01/06 13:06:55;;;;;;;2.28;1.75;;;22.50;53.10;;;;;;5107548;28;20174;-78
2021/01/06 13:09:49;;;;;;;1.80;1.70;;;22.00;52.90;;;;;;5105959;27;20239;-78
2021/01/06 13:12:46;;;;;;;0.30;0.30;;;21.40;52.40;;;;;;5105450;28;20194;-77
2021/01/06 13:15:30;;;;;;;0.60;0.47;;;20.10;50.30;;;;;;5089522;28;20613;-78
2021/01/06 13:18:07;;;;;;;0.63;0.40;;;19.10;52.70;;;;;;5089296;28;20180;-79
2021/01/06 13:21:01;;;;;;;0.75;0.75;;;18.60;55.30;;;;;;5088775;28;20203;-77
2021/01/06 13:23:26;;;;;;;0.30;0.30;;;18.20;54.60;;;;;;5088224;28;20173;-78
2021/01/06 13:26:15;;;;;;;0.20;0.20;;;17.70;55.00;;;;;;5107810;28;20170;-79
2021/01/06 13:28:50;;;;;;;0.20;0.20;;;17.00;56.20;;;;;;5086315;28;20234;-78
2021/01/06 13:31:42;;;;;;;1.05;0.20;;;16.60;57.80;;;;;;5089377;28;20169;-78
2021/01/06 13:34:26;;;;;;;0.63;0.40;;;16.30;56.90;;;;;;5107871;28;20193;-78
2021/01/06 13:36:57;;;;;;;0.43;0.43;;;15.90;57.40;;;;;;5108211;28;20226;-78
2021/01/06 13:39:50;;;;;;;2.70;1.50;;;15.60;58.70;;;;;;5108394;28;20157;-78
2021/01/06 13:45:39;;;;;;;0.30;0.30;;;15.00;59.50;;;;;;5005828;28;20680;-78
2021/01/06 13:48:23;;;;;;;0.90;0.22;;;14.70;60.90;;;;;;5004971;28;20275;-77